Foligno, Italy

3:34 PM CEST on August 24, 2016 (GMT +0200)
Spoleto | | Change Station

Elev 732 ft 42.83 °N, 12.72 °E | Updated 4 minutes ago

Scattered Clouds
Scattered Clouds
89.4 °F
Feels Like 88 °F
N
3.8
Wind Variable Wind from North
Gusts 9.2 mph

Today
High -- | Low -- °F
--% Chance of Precip.
Yesterday
High -- | Low -- °F
Precip. -- in
Pressure 30.21 in
Visibility 6.2 miles
Clouds Scattered Clouds 4000 ft
Heat Index 88 °F
Dew Point 56 °F
Humidity 32%
Rainfall 0.00 in
Snow Depth Not available.
6:25 AM 7:56 PM
Waning Gibbous, 57% visible
METAR LIVF 241255Z 28006KT 9999 SCT040 24/11 Q1023 RMK SCT MON LIB VAL NIL VIS MIN 9999
Pressure 30.21 in
Visibility 6.2 miles
Clouds Scattered Clouds 4000 ft
Heat Index 88 °F
Dew Point 56 °F
Humidity 32%
Rainfall 0.00 in
Snow Depth Not available.
6:25 AM 7:56 PM
Waning Gibbous, 57% visible
METAR LIVF 241255Z 28006KT 9999 SCT040 24/11 Q1023 RMK SCT MON LIB VAL NIL VIS MIN 9999

10-Day Weather Forecast

×

Almanac

Astronomy

Aug. 24, 2016 Rise Set
Actual Time
Civil Twilight
Nautical Twilight
Astronomical Twilight
Moon
Length of Visible Light
Length of Day
Tomorrow will be .
, % of the Moon is Illuminated

Today's Extremes

Country Highs Country Lows

Community

WunderPhotos

Upload Photos

1,934,599 photos uploaded!

WunderBlog® & News

Nearby

Air Quality

  Air Quality AQ Index Pollutant
Not available.

Snow Depth

Station Depth Elevation

Earthquake Activity

City Distance Mag. Time & Date
Minimum magnitude displayed is 2.5.

Coastal Water Temperatures

Place Temperature

Stations

Nearby Weather Stations

Station Location Temp. Windchill Dew Point Humidity Wind Precip. Elev Updated Type